AirNav   Pilot Hours Calculator
 
 959 users online  

3IL2 Sweedler Airport
Elwood, Illinois, USA

GOING TO ELWOOD?


FAA INFORMATION EFFECTIVE 01 DECEMBER 2022

Location

FAA Identifier: 3IL2
Lat/Long: 41-24-44.1120N 088-02-55.1980W
41-24.735200N 088-02.919967W
41.4122533,-88.0486661
(estimated)
Elevation: 669 ft. / 204 m (estimated)
Variation: 01W (1985)
From city: 3 miles NE of ELWOOD, IL
Time zone: UTC -6 (UTC -5 during Daylight Saving Time)
Zip code: 60421

Airport Operations

Airport use: Private use. Permission required prior to landing
Activation date: 12/1971
Control tower: no
ARTCC: CHICAGO CENTER
FSS: KANKAKEE FLIGHT SERVICE STATION
Attendance: UNATNDD
Wind indicator: yes
Segmented circle: no

Airport Communications

WX AWOS-3 at JOT (9 nm NW): 119.975 (815-730-9560)
WX AWOS-3 at LOT (12 nm N): 118.525 (815-588-4802)
WX AWOS-3 at C09 (17 nm W): 118.175 (815-941-1815)
WX AWOS-AV at C56 (17 nm E): 119.125 (708-534-5256)

Nearby radio navigation aids

VOR radial/distance  VOR name  Freq  Var
EONr304/14.4PEOTONE VORTAC113.2002E
JOTr122/14.6JOLIET VOR/DME112.3002E
CGTr253/22.2CHICAGO HEIGHTS VORTAC114.2002E
DPAr153/31.7DUPAGE VOR/DME108.4002E

Airport Services

Airframe service: NONE
Powerplant service: NONE

Runway Information

Runway 18/36

Dimensions: 2600 x 135 ft. / 792 x 41 m
Surface: turf
RUNWAY 18  RUNWAY 36
Traffic pattern: leftleft

Airport Ownership and Management from official FAA records

Ownership: Privately-owned
Owner: ROBERT C. SWEEDLER
17929 W. BROWN ROAD
ELWOOD, IL 60421
Phone 815-483-6244
Manager: ROBERT C. SWEEDLER
257 CORBIN CT
GALENA, MO 65656
Phone 815-483-6244

Airport Operational Statistics

Aircraft based on the field: 1
Single engine airplanes: 1
    

Additional Remarks

FOR CD CTC CHICAGO APCH AT 847-289-0926.

Instrument Procedures

There are no published instrument procedures at 3IL2.

Some nearby airports with instrument procedures:

KLOT - Lewis University Airport (12 nm N)
C09 - Morris Municipal Airport-James R. Washburn Field (17 nm W)
C56 - Bult Field Airport (17 nm E)
1C5 - Bolingbrook's Clow International Airport (17 nm N)
KIKK - Greater Kankakee Airport (22 nm SE)
 
Loc | Ops | Rwys | IFR | FBO | Links
Com | Nav | Svcs | Stats | Notes
Area around 3IL2 (Sweedler Airport)
 
Road maps at: MapQuest Bing Google
 
Aerial photo
No photo
 
Sectional chart

 
Airport distance calculator
Flying to Sweedler Airport? Find the distance to fly.

From to 3IL2

Sunrise and sunset
Times for 07-Dec-2022
 Local
(UTC-6)
 Zulu
(UTC)
Morning civil twilight06:3512:35
Sunrise07:0613:06
Sunset16:2222:22
Evening civil twilight16:5322:53

Current date and time
Zulu (UTC)  07-Dec-2022 12:33:12
Local (UTC-6)  07-Dec-2022 06:33:12
 
METAR
KJOT 
8nm NW 
071215Z AUTO 00000KT 1 3/4SM BR OVC004 04/04 A3018 RMK AO2 T00400035
KLOT 
12nm N 
071215Z AUTO 00000KT 1 1/2SM BR OVC003 03/03 A3018 RMK AO2
KC09 
17nm W 
071215Z AUTO 02003KT 3SM BR OVC011 03/03 A3017 RMK AO2 T00320032
TAF
KMDW 
26nm NE 
071158Z 0712/0818 32005KT 3SM BR SCT004 OVC010 TEMPO 0712/0714 2SM BR OVC004 FM071400 34005KT P6SM SCT006 OVC010 FM071800 33008KT P6SM BKN015 FM072200 35007KT P6SM BKN025 FM080200 01005KT P6SM SCT010 BKN020
KGYY 
31nm NE 
071120Z 0712/0812 32005KT P6SM OVC010 TEMPO 0712/0714 3SM BR OVC007 FM071800 33007KT P6SM BKN015 FM072100 35006KT P6SM BKN025 FM080200 01005KT P6SM SCT010 BKN020
KDPA 
32nm N 
071120Z 0712/0812 VRB03KT 1/2SM FG OVC003 TEMPO 0712/0714 1/4SM FG VV002 FM071500 33004KT 3SM BR OVC004 FM071800 32008KT P6SM BKN010 FM072100 35006KT P6SM BKN025 FM080200 01005KT P6SM SCT010 BKN020
NOTAMs
Click for the latest NOTAMs
NOTAMs are issued by the DoD/FAA and will open in a separate window not controlled by AirNav.

 

 
 

Would you like to see your business listed on this page?

 If your business provides an interesting product or service to pilots, flight crews, aircraft, or users of the Sweedler Airport, you should consider listing it here.  To start the listing process, click on the button below
 
Add a business
 

Other Pages about Sweedler Airport

Update a link
 
Copyright © AirNav, LLC. All rights reserved. Privacy Policy  Contact